首页
METAR-TAF:

METAR-TAF

机场 :

維多利亞, 西班牙

纬度: 42-53N, 经度: 002-43W, 海拔: 513米

当前天气观测

该预报发布于27分钟前的03:30 UTC
风速1节,风向西北
温度 7°C
湿度 100%
气压 1023 hPa
能見度: 0250
部分雾, 轻雾

METAR: LEVT 240330Z 32001KT 3000 0250NE R04/1800U R22/0900U PRFG BR VV001 07/07 Q1023

时间: 05:57 (03:57 UTC)

预报

该预报发布于4小时和57分钟前的23:00 UTC
预报有效从24日的 00点(UTC)到 24日的 24点(UTC)
风速2节,风向多变
能見度: 8000
散云层高于2000英尺
散云层高于5000英尺
短暂存在
从 24日的 00点(UTC)到 24日的 08点(UTC)
能見度: 3000
多云层高于1000英尺
轻雾
短暂存在
从 24日的 00点(UTC)到 24日的 08点(UTC)
能見度: 0800
多云层高于200英尺
碎片雾
几率 40% :
短暂存在
从 24日的 00点(UTC)到 24日的 08点(UTC)
能見度: 0350
层高于100英尺
成为
从 24日的 06点(UTC)到 24日的 09点(UTC)
风速12节,风向西南
短暂存在
从 24日的 10点(UTC)到 24日的 24点(UTC)
风速15节,风向西南,有时为30节阵风
几率 40% :
短暂存在
从 24日的 21点(UTC)到 24日的 24点(UTC)
风速20节,风向西南,有时为35节阵风

TAF: LEVT 232300Z 2400/2424 VRB02KT 8000 SCT020 SCT050 TX18/2415Z TN03/2406Z TEMPO 2400/2408 3000 BR BKN010 TEMPO 2400/2408 0800 BCFG BKN002 PROB40 TEMPO 2400/2408 0350 FG VV001 BECMG 2406/2409 22012KT TEMPO 2410/2424 22015G30KT PROB40 TEMPO 2421/2424 22020G35KT

超过4000个机场的气象观测和天气预报(METAR&TAF报告)。

可查询的气象台以黄色和红色小点在地图上表示。

将鼠标移到小点上方,可查看气象台名称。

然后点击查看天气观测和预报。

如需切换地图:点击带黑十字的绿色按钮放大地图;点击带横线的绿色按钮缩小地图;或者点击绿色箭头查看邻近地区的地图。


METAR-TAF: